Agate Beach, Oregon
Current Conditions -  °F | °C
As of 6:55 AM on Sunday 21 Dec 2014 (Local Time) from KONP Reporting Station
Moderate Rain Moderate Rain  
Wind Chill: 13°   Ceiling: 1000
Heat Index: 13°   Visibility: 3mi
Dew Point: 12°   Wind: 13mph
Humidity: 94%   Direction: 230°SW
Pressure: 30.04"   Gusts: 20mph
Location:  44.6805°N, 124.021°W
Report Text: KONP 211455Z AUTO 23011G17KT 3SM RA OVC010 13/12 A3004 RMK AO2 P0003
Loading
Personal Weather Stations






























Interactive Weather Map New forecast layout! Learn more

10-Day Weather Forecast

Advertisements
Track Severe Weather on mobile